Kemp, Georgia
Current Conditions -  °F | °C
As of 11:15 PM on Wednesday 17 Dec 2014 (Local Time) from KSBO Reporting Station
Clear Clear  
Wind Chill: 42°   Ceiling: Unl
Heat Index: 45°   Visibility: 10mi
Dew Point: 45°   Wind: 5mph
Humidity: 100%   Direction: 310°NW
Pressure: 30.14"   Gusts: NA
Location:  32.5371°N, 82.3457°W
Report Text: KSBO 180415Z AUTO 31004KT 10SM CLR 07/07 A3014 RMK AO2
Loading
Personal Weather Stations






























Interactive Weather Map New forecast layout! Learn more

10-Day Weather Forecast

Advertisements
Track Severe Weather on mobile